עמוד ראשי
METAR-TAF:

METAR-TAF

שדות תעופה :

Al-`Ula, ערב הסעודית

קו רוחב: 26-29-00N, קו אורך: 038-07-01E, גובה: 624מטר

תצפית מזג אוויר נוכחית

הדו"ח נערך לפני 53דקות, בשעה 19:00 UTC
רוח 8קשר מכיוון צפון-מזרח
טמפרטורת 39 צלסיוס
לחות 6%
לחץ 1009 hPa
ראות 10 קילומטר או יותר
ללא עננים שבסיסם נמוך מ 5000 רגל או קומולונימבוס

METAR: OEAO 131900Z 04008KT CAVOK 39/M05 Q1009 NOSIG

זמן: 22:53 (19:53 UTC)

תחזית

הדו"ח נערך לפני 8 שעות ו 53דקות, בשעה 11:00 UTC
תחזית בתוקף מ 13 ב 12 UTC עד 14 ב 18 UTC
רוח 10קשר מכיוון צפון
ראות 10 קילומטר או יותר
ללא עננים שבסיסם נמוך מ 5000 רגל או קומולונימבוס

TAF: OEAO 131100Z 1312/1418 36010KT CAVOK

תצפיות ותחזיות מזג אוויר לגבי יותר מ- 4,000 שדות תעופה ברחבי העולם. דוחות METAR ו- TAF.

התחנות הזמינות מסומנות בנקודות צהובות ואדומות על גבי המפה.

העבר את העכבר לנקודה הצבעונית על מנת לראות את שם התחנה.

לאחר מכן, לחץ כדי לראות את תוכן ואת תחזיות מזג האוויר.

כדי לשנות את המפה: לחץ על הכפתורים הירוקים עם הפלוס השחור כדי להתקרב; על הכפתור הירוק עם המקף כדי להתרחק; או בחיצים הירוקים למפות סמוכות.


METAR-TAF: